Time;durP1;ratioP1;P1;durP2;ratioP2;P2;SDS_P1;SDS_P2;PMS_P1;PMS_P2;Temp;Humidity;BMP_temperature;BMP_pressure;BME280_temperature;BME280_humidity;BME280_pressure;Samples;Min_cycle;Max_cycle;Signal;HPM_P1;HPM_P2
2022/01/05 00:02:24;;;;;;;48.92;26.27;;;8.00;78.70;;;;;;5052812;28;20425;-57
2022/01/05 00:04:50;;;;;;;51.65;26.48;;;8.00;78.70;;;;;;5063857;28;20029;-54
2022/01/05 00:07:16;;;;;;;43.13;24.92;;;8.00;79.00;;;;;;5057188;28;20021;-56
2022/01/05 00:09:43;;;;;;;48.97;26.58;;;8.00;79.10;;;;;;5063693;28;20031;-54
2022/01/05 00:12:10;;;;;;;51.08;28.38;;;8.10;79.10;;;;;;5066395;28;20051;-54
2022/01/05 00:14:36;;;;;;;52.00;26.83;;;8.10;79.20;;;;;;5070365;28;20063;-56
2022/01/05 00:17:02;;;;;;;55.67;28.42;;;8.10;79.30;;;;;;5056147;28;20021;-57
2022/01/05 00:19:28;;;;;;;45.47;25.58;;;8.10;79.50;;;;;;5053259;28;20036;-55
2022/01/05 00:21:53;;;;;;;51.90;28.40;;;8.10;79.60;;;;;;5051828;28;20076;-55
2022/01/05 00:24:19;;;;;;;43.47;22.20;;;8.10;79.70;;;;;;5057219;28;20463;-57
2022/01/05 00:26:44;;;;;;;41.95;23.75;;;8.10;79.90;;;;;;5059064;28;20444;-55
2022/01/05 00:29:10;;;;;;;29.45;17.95;;;8.10;80.00;;;;;;5059019;28;20100;-55
2022/01/05 00:31:36;;;;;;;21.20;13.95;;;8.10;80.10;;;;;;5065508;28;20032;-56
2022/01/05 00:34:01;;;;;;;27.30;14.73;;;8.10;80.00;;;;;;5063495;28;20040;-54
2022/01/05 00:36:27;;;;;;;14.07;9.77;;;8.10;80.10;;;;;;5057265;28;20032;-58
2022/01/05 00:38:53;;;;;;;15.68;10.57;;;8.10;80.00;;;;;;5060148;28;20508;-58
2022/01/05 00:41:19;;;;;;;17.35;9.82;;;8.00;80.00;;;;;;5043332;28;20384;-57
2022/01/05 00:43:44;;;;;;;12.23;9.05;;;8.00;80.10;;;;;;5062804;28;20039;-58
2022/01/05 00:46:10;;;;;;;11.57;8.50;;;8.00;80.40;;;;;;5055417;28;20021;-56
2022/01/05 00:48:36;;;;;;;11.98;9.50;;;8.00;80.40;;;;;;5047284;28;20026;-57
2022/01/05 00:51:06;;;;;;;10.25;7.93;;;7.90;80.50;;;;;;5045967;28;20023;-55
2022/01/05 00:53:33;;;;;;;9.90;7.60;;;7.90;80.60;;;;;;5066895;28;20071;-55
2022/01/05 00:55:59;;;;;;;11.40;8.02;;;7.90;80.70;;;;;;5050039;28;20039;-54
2022/01/05 00:58:25;;;;;;;9.85;7.85;;;7.90;81.00;;;;;;5043749;28;20029;-58
2022/01/05 01:00:51;;;;;;;9.82;7.20;;;7.90;81.10;;;;;;5053888;28;20029;-54
2022/01/05 01:03:16;;;;;;;10.25;7.10;;;7.80;81.30;;;;;;5061973;28;20423;-57
2022/01/05 01:05:42;;;;;;;10.82;8.05;;;7.80;81.40;;;;;;5060001;28;20469;-58
2022/01/05 01:08:09;;;;;;;12.20;8.75;;;7.80;81.20;;;;;;5052538;28;20078;-53
2022/01/05 01:10:35;;;;;;;15.10;10.82;;;7.80;81.40;;;;;;5053258;28;20040;-55
2022/01/05 01:13:01;;;;;;;23.63;13.38;;;7.70;81.50;;;;;;5055416;28;20024;-57
2022/01/05 01:15:27;;;;;;;26.33;15.63;;;7.70;81.60;;;;;;5065135;28;20032;-57
2022/01/05 01:17:52;;;;;;;31.08;17.85;;;7.70;81.70;;;;;;5055816;28;20025;-57
2022/01/05 01:20:20;;;;;;;36.17;22.05;;;7.70;81.70;;;;;;5053589;28;20028;-57
2022/01/05 01:22:46;;;;;;;29.75;16.23;;;7.70;82.00;;;;;;5066681;28;20094;-54
2022/01/05 01:25:12;;;;;;;23.02;13.05;;;7.70;82.10;;;;;;5064934;28;20021;-58
2022/01/05 01:27:40;;;;;;;14.65;9.43;;;7.70;82.10;;;;;;5048070;28;20028;-57
2022/01/05 01:30:07;;;;;;;11.90;8.07;;;7.60;82.00;;;;;;5046024;28;20052;-57
2022/01/05 01:32:33;;;;;;;11.55;7.70;;;7.70;81.90;;;;;;5052221;28;20044;-57
2022/01/05 01:34:59;;;;;;;8.75;6.45;;;7.60;82.00;;;;;;5057260;28;20159;-55
2022/01/05 01:37:25;;;;;;;11.02;7.32;;;7.60;82.20;;;;;;5055582;28;20469;-57
2022/01/05 01:39:50;;;;;;;7.55;5.88;;;7.60;82.30;;;;;;5052553;28;20028;-57
2022/01/05 01:42:16;;;;;;;8.18;6.82;;;7.60;83.20;;;;;;5054746;28;20442;-54
2022/01/05 01:44:43;;;;;;;10.20;7.18;;;7.60;82.50;;;;;;5054595;28;20115;-57
2022/01/05 01:47:08;;;;;;;9.77;6.72;;;7.60;82.60;;;;;;5055375;28;20567;-56
2022/01/05 01:49:34;;;;;;;9.85;7.20;;;7.60;82.70;;;;;;5041786;28;20036;-56
2022/01/05 01:52:00;;;;;;;13.63;9.30;;;7.60;82.60;;;;;;5056124;28;20489;-53
2022/01/05 01:54:26;;;;;;;20.30;12.50;;;7.50;82.80;;;;;;5045817;28;20027;-57
2022/01/05 01:56:53;;;;;;;42.58;22.48;;;7.60;82.90;;;;;;5052349;28;20061;-55
2022/01/05 01:59:19;;;;;;;65.97;33.60;;;7.50;83.00;;;;;;5055664;28;20093;-57
2022/01/05 02:01:44;;;;;;;59.30;31.00;;;7.60;83.10;;;;;;5062005;28;20077;-54
2022/01/05 02:04:10;;;;;;;54.30;27.85;;;7.60;83.20;;;;;;5065996;28;20024;-54
2022/01/05 02:06:36;;;;;;;55.65;27.02;;;7.60;83.20;;;;;;5055537;28;20021;-57
2022/01/05 02:09:04;;;;;;;42.65;22.83;;;7.60;83.40;;;;;;5054736;28;20073;-55
2022/01/05 02:11:32;;;;;;;34.05;17.42;;;7.60;83.60;;;;;;5062403;28;20031;-58
2022/01/05 02:13:58;;;;;;;22.60;12.23;;;7.60;83.50;;;;;;5050702;28;20040;-57
2022/01/05 02:16:30;;;;;;;17.80;10.95;;;7.60;83.50;;;;;;5052123;28;20036;-57
2022/01/05 02:19:00;;;;;;;20.10;9.77;;;7.70;83.60;;;;;;5050908;28;20025;-55
2022/01/05 02:21:31;;;;;;;16.63;10.25;;;7.70;83.40;;;;;;5052164;28;20052;-55
2022/01/05 02:23:57;;;;;;;15.52;9.02;;;7.60;83.40;;;;;;5054846;28;20730;-57
2022/01/05 02:26:23;;;;;;;17.88;9.40;;;7.70;83.50;;;;;;5067352;28;20025;-55
2022/01/05 02:28:50;;;;;;;18.70;10.27;;;7.70;84.10;;;;;;5055974;28;20025;-55
2022/01/05 02:31:16;;;;;;;19.27;9.40;;;7.70;83.40;;;;;;5056735;28;20480;-56
2022/01/05 02:33:42;;;;;;;23.58;11.25;;;7.70;83.40;;;;;;5058414;28;20028;-56
2022/01/05 02:36:10;;;;;;;26.58;13.50;;;7.70;83.50;;;;;;5060350;28;20029;-58
2022/01/05 02:38:35;;;;;;;35.17;19.50;;;7.70;83.40;;;;;;5050082;28;20120;-58
2022/01/05 02:41:07;;;;;;;51.97;28.10;;;7.70;83.20;;;;;;5049472;28;20099;-57
2022/01/05 02:43:37;;;;;;;55.58;27.45;;;7.60;83.30;;;;;;5071189;28;20028;-57
2022/01/05 02:46:03;;;;;;;47.50;26.73;;;7.60;83.40;;;;;;5060981;28;20484;-57
2022/01/05 02:48:30;;;;;;;53.30;26.13;;;7.60;83.50;;;;;;5045772;28;20381;-57
2022/01/05 02:50:57;;;;;;;49.40;23.40;;;7.60;83.60;;;;;;5063441;28;20479;-57
2022/01/05 02:53:23;;;;;;;29.38;16.48;;;7.50;83.60;;;;;;5059751;28;20074;-55
2022/01/05 02:55:49;;;;;;;18.95;11.43;;;7.50;83.70;;;;;;5057040;28;20021;-56
2022/01/05 02:58:15;;;;;;;13.70;9.48;;;7.50;83.80;;;;;;5047581;28;20090;-57
2022/01/05 03:00:40;;;;;;;10.23;6.93;;;7.40;83.90;;;;;;5061767;28;20021;-56
2022/01/05 03:03:06;;;;;;;12.07;7.65;;;7.40;83.90;;;;;;5068440;28;20077;-57
2022/01/05 03:05:32;;;;;;;13.43;7.80;;;7.40;84.10;;;;;;5060913;28;20036;-58
2022/01/05 03:07:57;;;;;;;9.52;6.80;;;7.40;84.20;;;;;;5053159;28;20040;-57
2022/01/05 03:10:23;;;;;;;8.93;6.55;;;7.30;84.20;;;;;;5068543;28;20021;-58
2022/01/05 03:12:49;;;;;;;8.52;6.70;;;7.30;84.30;;;;;;5049774;28;20508;-57
2022/01/05 03:15:15;;;;;;;10.82;8.18;;;7.30;84.50;;;;;;5055315;28;20031;-58
2022/01/05 03:17:41;;;;;;;9.35;7.70;;;7.30;84.70;;;;;;5063598;28;20048;-58
2022/01/05 03:20:09;;;;;;;11.40;8.25;;;7.30;84.90;;;;;;5058414;28;20529;-57
2022/01/05 03:22:35;;;;;;;9.38;7.82;;;7.30;84.70;;;;;;5055745;28;20053;-58
2022/01/05 03:25:02;;;;;;;9.65;8.30;;;7.30;84.80;;;;;;5069743;28;20422;-57
2022/01/05 03:27:28;;;;;;;9.80;7.45;;;7.20;84.90;;;;;;5060064;28;20056;-57
2022/01/05 03:29:54;;;;;;;9.73;7.55;;;7.20;85.00;;;;;;5050765;28;20503;-55
2022/01/05 03:32:21;;;;;;;9.45;7.93;;;7.20;85.10;;;;;;5048089;28;20021;-56
2022/01/05 03:34:47;;;;;;;11.50;9.45;;;7.20;85.20;;;;;;5069056;28;20036;-53
2022/01/05 03:37:13;;;;;;;14.45;11.32;;;7.20;85.30;;;;;;5063963;28;20025;-55
2022/01/05 03:39:38;;;;;;;14.48;12.05;;;7.20;85.20;;;;;;5050818;28;20039;-58
2022/01/05 03:42:05;;;;;;;13.85;12.32;;;7.20;85.20;;;;;;5037513;28;20077;-58
2022/01/05 03:44:30;;;;;;;15.00;12.55;;;7.20;85.40;;;;;;5060818;28;20419;-54
2022/01/05 03:46:56;;;;;;;15.52;13.13;;;7.20;85.40;;;;;;5060188;28;20026;-55
2022/01/05 03:49:23;;;;;;;12.68;11.20;;;7.20;85.70;;;;;;5051806;28;20384;-57
2022/01/05 03:51:48;;;;;;;11.15;8.30;;;7.20;85.70;;;;;;5050418;28;20028;-56
2022/01/05 03:54:14;;;;;;;10.90;8.93;;;7.20;85.60;;;;;;5067127;28;20384;-57
2022/01/05 03:56:40;;;;;;;9.00;7.53;;;7.30;85.60;;;;;;5063404;28;20025;-57
2022/01/05 03:59:05;;;;;;;8.27;7.22;;;7.30;85.40;;;;;;5056742;28;20039;-54
2022/01/05 04:01:31;;;;;;;8.90;6.80;;;7.30;85.20;;;;;;5052131;28;20029;-58
2022/01/05 04:03:56;;;;;;;9.00;7.05;;;7.30;85.20;;;;;;5062845;28;20272;-56
2022/01/05 04:06:22;;;;;;;9.52;7.63;;;7.30;85.10;;;;;;5060409;28;20025;-57
2022/01/05 04:08:48;;;;;;;8.85;6.57;;;7.30;85.00;;;;;;5054490;28;20036;-54
2022/01/05 04:11:13;;;;;;;9.13;7.05;;;7.30;85.00;;;;;;5048524;28;20052;-55
2022/01/05 04:13:39;;;;;;;8.52;7.63;;;7.20;84.90;;;;;;5053783;28;20102;-56
2022/01/05 04:16:06;;;;;;;11.52;7.57;;;7.20;85.10;;;;;;5064023;28;20452;-57
2022/01/05 04:18:31;;;;;;;9.13;6.93;;;7.20;85.20;;;;;;5051371;28;20040;-57
2022/01/05 04:20:57;;;;;;;10.25;7.35;;;7.30;85.30;;;;;;5050791;28;20119;-57
2022/01/05 04:23:22;;;;;;;10.90;7.22;;;7.30;85.20;;;;;;5060734;28;20447;-57
2022/01/05 04:25:48;;;;;;;8.38;7.03;;;7.30;85.10;;;;;;5053069;28;20538;-55
2022/01/05 04:28:14;;;;;;;9.90;7.13;;;7.30;85.20;;;;;;5054895;28;20121;-57
2022/01/05 04:30:40;;;;;;;10.68;7.22;;;7.30;85.30;;;;;;5054686;28;20014;-53
2022/01/05 04:33:05;;;;;;;9.75;7.05;;;7.30;85.30;;;;;;5067057;28;20468;-56
2022/01/05 04:35:31;;;;;;;8.18;6.65;;;7.40;85.40;;;;;;5057794;28;20021;-57
2022/01/05 04:37:57;;;;;;;9.07;6.60;;;7.40;85.20;;;;;;5051820;28;20207;-57
2022/01/05 04:40:22;;;;;;;8.23;6.10;;;7.40;85.20;;;;;;5040818;28;20033;-58
2022/01/05 04:42:48;;;;;;;8.15;5.82;;;7.40;85.00;;;;;;5056696;28;20025;-56
2022/01/05 04:45:13;;;;;;;8.48;6.07;;;7.40;84.70;;;;;;5058060;28;20077;-56
2022/01/05 04:47:39;;;;;;;7.70;6.03;;;7.40;84.70;;;;;;5055309;28;20163;-57
2022/01/05 04:50:05;;;;;;;8.23;6.05;;;7.40;84.50;;;;;;5050642;28;20036;-58
2022/01/05 04:52:31;;;;;;;8.35;6.03;;;7.40;84.50;;;;;;5067658;28;20036;-56
2022/01/05 04:54:57;;;;;;;9.23;6.60;;;7.40;84.60;;;;;;5041712;28;20021;-55
2022/01/05 04:57:22;;;;;;;8.30;5.47;;;7.40;84.60;;;;;;5064478;28;20116;-53
2022/01/05 04:59:48;;;;;;;8.02;5.93;;;7.30;84.40;;;;;;5059663;28;20039;-56
2022/01/05 05:02:14;;;;;;;8.65;5.88;;;7.30;84.50;;;;;;5045125;28;20025;-57
2022/01/05 05:04:40;;;;;;;9.20;6.43;;;7.30;84.60;;;;;;5052622;28;20096;-57
2022/01/05 05:07:06;;;;;;;8.02;6.35;;;7.30;84.80;;;;;;5066480;28;20012;-57
2022/01/05 05:09:32;;;;;;;8.52;6.32;;;7.30;84.90;;;;;;5055876;28;20372;-56
2022/01/05 05:11:58;;;;;;;8.45;6.13;;;7.30;84.80;;;;;;5044841;28;20031;-58
2022/01/05 05:14:23;;;;;;;9.73;6.60;;;7.30;84.90;;;;;;5051636;28;20031;-54
2022/01/05 05:16:49;;;;;;;8.55;6.60;;;7.30;85.00;;;;;;5052286;28;20417;-54
2022/01/05 05:19:15;;;;;;;7.47;5.80;;;7.30;85.00;;;;;;5065787;28;20085;-57
2022/01/05 05:21:40;;;;;;;9.57;7.20;;;7.30;85.10;;;;;;5062689;28;20048;-56
2022/01/05 05:24:06;;;;;;;9.45;7.85;;;7.40;85.20;;;;;;5053398;28;20116;-55
2022/01/05 05:26:32;;;;;;;10.45;7.78;;;7.40;85.20;;;;;;5048013;28;20027;-57
2022/01/05 05:28:58;;;;;;;9.93;7.40;;;7.40;85.20;;;;;;5056210;28;20016;-54
2022/01/05 05:31:23;;;;;;;11.02;7.65;;;7.50;85.20;;;;;;5046464;28;20100;-56
2022/01/05 05:33:49;;;;;;;13.32;8.93;;;7.50;85.20;;;;;;5063342;28;20383;-56
2022/01/05 05:36:14;;;;;;;17.10;10.13;;;7.50;84.90;;;;;;5063274;28;20110;-56
2022/01/05 05:38:40;;;;;;;14.45;10.02;;;7.50;84.80;;;;;;5055683;28;20025;-58
2022/01/05 05:41:06;;;;;;;16.65;11.95;;;7.50;84.80;;;;;;5062115;28;20017;-57
2022/01/05 05:43:31;;;;;;;14.77;10.70;;;7.50;84.90;;;;;;5050286;28;20029;-57
2022/01/05 05:45:57;;;;;;;17.88;11.68;;;7.50;85.00;;;;;;5050765;28;20037;-56
2022/01/05 05:48:23;;;;;;;16.83;12.43;;;7.50;85.00;;;;;;5050831;28;20397;-55
2022/01/05 05:50:49;;;;;;;12.90;10.50;;;7.40;85.00;;;;;;5048968;28;20111;-57
2022/01/05 05:53:15;;;;;;;12.63;9.43;;;7.40;85.10;;;;;;5058159;28;20019;-57
2022/01/05 05:55:40;;;;;;;12.65;9.98;;;7.40;85.20;;;;;;5053526;28;20030;-56
2022/01/05 05:58:06;;;;;;;13.57;9.65;;;7.40;85.30;;;;;;5065832;28;20100;-56
2022/01/05 06:00:32;;;;;;;12.63;9.07;;;7.50;85.40;;;;;;5054144;28;20029;-57
2022/01/05 06:02:59;;;;;;;13.32;9.85;;;7.50;85.50;;;;;;5049545;28;20491;-58
2022/01/05 06:05:26;;;;;;;14.07;9.68;;;7.50;85.40;;;;;;5051511;28;20037;-55
2022/01/05 06:07:52;;;;;;;12.48;9.82;;;7.60;85.50;;;;;;5047042;28;20021;-57
2022/01/05 06:10:18;;;;;;;13.60;10.02;;;7.60;85.50;;;;;;5050977;28;20045;-58
2022/01/05 06:12:44;;;;;;;10.43;8.52;;;7.60;85.90;;;;;;5049363;28;20353;-63
2022/01/05 06:15:10;;;;;;;12.93;9.95;;;7.60;85.30;;;;;;5045568;28;20088;-63
2022/01/05 06:17:35;;;;;;;13.15;9.00;;;7.60;85.20;;;;;;5043727;28;20030;-63
2022/01/05 06:20:04;;;;;;;14.55;10.80;;;7.60;85.10;;;;;;5049095;28;20060;-62
2022/01/05 06:22:30;;;;;;;15.85;10.48;;;7.60;85.10;;;;;;5050614;28;20057;-57
2022/01/05 06:24:56;;;;;;;14.90;10.38;;;7.60;85.30;;;;;;5058509;28;20017;-55
2022/01/05 06:27:21;;;;;;;13.30;10.27;;;7.60;85.50;;;;;;5055627;28;20017;-57
2022/01/05 06:29:47;;;;;;;15.60;11.25;;;7.60;85.50;;;;;;5060669;28;20029;-57
2022/01/05 06:32:13;;;;;;;17.10;11.10;;;7.70;86.30;;;;;;5065125;28;20028;-56
2022/01/05 06:34:38;;;;;;;15.73;11.48;;;7.70;85.70;;;;;;5059894;28;20037;-57
2022/01/05 06:37:04;;;;;;;16.23;10.98;;;7.70;85.70;;;;;;5053066;28;20472;-55
2022/01/05 06:39:30;;;;;;;13.27;10.35;;;7.80;85.80;;;;;;5067077;28;20499;-53
2022/01/05 06:41:56;;;;;;;11.95;9.80;;;7.80;85.80;;;;;;5057847;28;20031;-55
2022/01/05 06:44:22;;;;;;;14.15;10.15;;;7.80;85.90;;;;;;5053896;28;20043;-56
2022/01/05 06:46:47;;;;;;;13.98;10.15;;;7.80;86.00;;;;;;5047785;28;20373;-54
2022/01/05 06:49:13;;;;;;;14.98;10.68;;;7.80;86.20;;;;;;5058416;28;20036;-54
2022/01/05 06:51:39;;;;;;;14.73;10.27;;;7.80;86.20;;;;;;5054634;28;20384;-54
2022/01/05 06:54:04;;;;;;;15.63;11.43;;;7.80;86.40;;;;;;5042406;28;20036;-53
2022/01/05 06:56:30;;;;;;;13.55;10.50;;;7.80;86.50;;;;;;5045237;28;20033;-56
2022/01/05 06:58:56;;;;;;;15.63;11.63;;;7.90;86.60;;;;;;5036799;28;20025;-55
2022/01/05 07:01:21;;;;;;;15.70;12.15;;;7.90;86.60;;;;;;5039837;28;20025;-58
2022/01/05 07:03:47;;;;;;;18.27;12.25;;;8.00;86.70;;;;;;5033427;28;21128;-58
2022/01/05 07:06:13;;;;;;;17.05;11.68;;;8.00;86.70;;;;;;5041670;28;20033;-57
2022/01/05 07:08:39;;;;;;;14.48;11.73;;;8.10;86.80;;;;;;5036496;28;20026;-57
2022/01/05 07:11:05;;;;;;;15.68;11.55;;;8.10;86.60;;;;;;5029598;28;20043;-57
2022/01/05 07:13:31;;;;;;;17.10;10.88;;;8.20;86.50;;;;;;5036580;28;20041;-56
2022/01/05 07:15:57;;;;;;;15.05;10.88;;;8.20;86.30;;;;;;5040392;28;20116;-57
2022/01/05 07:18:23;;;;;;;13.95;10.93;;;8.30;86.10;;;;;;5034050;28;20128;-57
2022/01/05 07:20:48;;;;;;;15.65;11.93;;;8.30;86.00;;;;;;5034602;28;20465;-55
2022/01/05 07:23:14;;;;;;;13.32;10.10;;;8.30;86.00;;;;;;5035437;28;20049;-58
2022/01/05 07:25:40;;;;;;;12.43;10.38;;;8.40;86.10;;;;;;5033917;28;20108;-59
2022/01/05 07:28:06;;;;;;;13.13;10.25;;;8.40;86.00;;;;;;5029131;28;20056;-59
2022/01/05 07:30:32;;;;;;;13.50;10.25;;;8.40;85.90;;;;;;5029100;28;20061;-59
2022/01/05 07:32:57;;;;;;;13.25;10.02;;;8.50;85.90;;;;;;5029291;28;20458;-60
2022/01/05 07:35:23;;;;;;;13.18;10.18;;;8.50;85.90;;;;;;5032167;28;20083;-60
2022/01/05 07:37:49;;;;;;;13.27;9.75;;;8.60;85.80;;;;;;5018703;28;20129;-60
2022/01/05 07:40:14;;;;;;;11.68;9.32;;;8.60;85.60;;;;;;5023614;28;20061;-61
2022/01/05 07:42:40;;;;;;;11.90;9.25;;;8.60;85.50;;;;;;5026651;28;20120;-57
2022/01/05 07:45:09;;;;;;;11.60;8.93;;;8.70;85.50;;;;;;5016765;28;20075;-57
2022/01/05 07:47:35;;;;;;;12.98;8.98;;;8.70;85.40;;;;;;5034266;28;20068;-59
2022/01/05 07:50:01;;;;;;;12.05;9.60;;;8.80;85.40;;;;;;5035793;28;20098;-60
2022/01/05 07:52:26;;;;;;;11.45;9.07;;;8.80;85.40;;;;;;5028093;28;20033;-59
2022/01/05 07:54:52;;;;;;;13.85;9.13;;;8.90;85.40;;;;;;5038050;28;20037;-59
2022/01/05 07:57:19;;;;;;;11.55;9.45;;;8.90;85.20;;;;;;5031559;28;20033;-58
2022/01/05 07:59:45;;;;;;;12.85;9.55;;;8.90;85.10;;;;;;5025513;28;20080;-59
2022/01/05 08:02:11;;;;;;;12.75;9.30;;;9.00;85.00;;;;;;5029041;28;20461;-58
2022/01/05 08:04:36;;;;;;;10.85;9.05;;;9.10;84.80;;;;;;5029323;28;20025;-58
2022/01/05 08:07:02;;;;;;;12.43;9.55;;;9.10;84.80;;;;;;5029339;28;20039;-59
2022/01/05 08:09:29;;;;;;;14.65;9.32;;;9.10;84.70;;;;;;5027924;28;20057;-60
2022/01/05 08:11:56;;;;;;;14.20;9.43;;;9.20;84.70;;;;;;5021716;28;20033;-60
2022/01/05 08:14:22;;;;;;;12.07;9.82;;;9.20;84.70;;;;;;5022256;28;20429;-60
2022/01/05 08:16:47;;;;;;;12.95;10.27;;;9.30;84.70;;;;;;5028703;28;20028;-63
2022/01/05 08:19:13;;;;;;;12.18;9.10;;;9.30;84.70;;;;;;5026254;28;20068;-60
2022/01/05 08:21:38;;;;;;;12.65;9.55;;;9.30;84.60;;;;;;5029077;28;20096;-59
2022/01/05 08:24:05;;;;;;;11.30;9.18;;;9.40;84.70;;;;;;5024151;28;20061;-60
2022/01/05 08:26:30;;;;;;;10.75;8.52;;;9.40;84.70;;;;;;5020323;28;20032;-60
2022/01/05 08:28:56;;;;;;;11.73;8.82;;;9.50;84.60;;;;;;5022621;28;20033;-59
2022/01/05 08:31:22;;;;;;;13.07;9.50;;;9.50;84.60;;;;;;5028922;28;20707;-60
2022/01/05 08:33:48;;;;;;;10.77;8.05;;;9.60;84.70;;;;;;5023520;28;20034;-59
2022/01/05 08:36:14;;;;;;;11.80;9.02;;;9.70;84.70;;;;;;5027308;28;20039;-60
2022/01/05 08:38:40;;;;;;;12.57;8.65;;;9.70;84.60;;;;;;5023893;28;20038;-60
2022/01/05 08:41:06;;;;;;;9.93;7.63;;;9.80;84.60;;;;;;5026138;28;20033;-59
2022/01/05 08:43:33;;;;;;;11.18;8.02;;;9.80;84.40;;;;;;5025476;28;20044;-59
2022/01/05 08:46:00;;;;;;;10.32;7.50;;;9.90;84.20;;;;;;5027209;28;21121;-60
2022/01/05 08:48:26;;;;;;;12.02;7.43;;;9.90;84.00;;;;;;5030713;28;20057;-59
2022/01/05 08:50:52;;;;;;;10.93;8.52;;;10.00;83.90;;;;;;5024348;28;20021;-58
2022/01/05 08:53:18;;;;;;;9.95;7.28;;;10.10;84.50;;;;;;5032219;28;20025;-59
2022/01/05 08:55:47;;;;;;;10.88;8.15;;;10.10;83.60;;;;;;5028926;28;20115;-59
2022/01/05 08:58:14;;;;;;;9.57;7.55;;;10.10;83.50;;;;;;5029355;28;20036;-58
2022/01/05 09:00:40;;;;;;;11.13;7.72;;;10.20;83.40;;;;;;5024430;28;20037;-58
2022/01/05 09:03:07;;;;;;;10.23;7.13;;;10.20;83.20;;;;;;5020356;28;20126;-58
2022/01/05 09:05:33;;;;;;;12.25;6.90;;;10.30;83.20;;;;;;5024893;28;20059;-57
2022/01/05 09:08:00;;;;;;;9.57;7.53;;;10.30;83.00;;;;;;5025905;28;20033;-58
2022/01/05 09:10:25;;;;;;;10.15;7.63;;;10.40;82.90;;;;;;5024873;28;20525;-59
2022/01/05 09:12:53;;;;;;;10.07;7.75;;;10.40;82.80;;;;;;5022926;28;20032;-59
2022/01/05 09:15:19;;;;;;;9.88;7.47;;;10.40;82.70;;;;;;5032035;28;20103;-59
2022/01/05 09:17:45;;;;;;;11.15;8.48;;;10.50;82.50;;;;;;5035711;28;20043;-59
2022/01/05 09:20:11;;;;;;;11.93;7.78;;;10.50;82.40;;;;;;5023430;28;20053;-60
2022/01/05 09:22:38;;;;;;;10.88;8.00;;;10.60;82.50;;;;;;5024617;28;20456;-58
2022/01/05 09:25:09;;;;;;;16.10;8.38;;;10.60;82.30;;;;;;5027452;28;20039;-60
2022/01/05 09:27:36;;;;;;;12.15;8.55;;;10.70;82.00;;;;;;5028706;28;20029;-59
2022/01/05 09:30:03;;;;;;;12.68;9.25;;;10.70;82.00;;;;;;5026956;28;20031;-58
2022/01/05 09:32:29;;;;;;;9.55;7.72;;;10.70;81.70;;;;;;5021214;28;20030;-56
2022/01/05 09:34:55;;;;;;;9.40;7.45;;;10.80;81.40;;;;;;5022865;28;20051;-58
2022/01/05 09:37:28;;;;;;;8.55;6.93;;;10.80;81.10;;;;;;5019003;28;20479;-59
2022/01/05 09:42:40;;;;;;;12.55;8.95;;;10.90;80.80;;;;;;5025458;28;20098;-60
2022/01/05 09:45:14;;;;;;;12.77;8.38;;;10.90;80.80;;;;;;5022798;28;20845;-60
2022/01/05 09:48:08;;;;;;;10.52;8.80;;;11.00;80.70;;;;;;5027098;28;20029;-61
2022/01/05 09:50:35;;;;;;;11.80;8.55;;;11.00;80.90;;;;;;5019198;28;20086;-57
2022/01/05 09:53:02;;;;;;;12.80;9.45;;;11.00;80.90;;;;;;5017868;28;20021;-58
2022/01/05 09:55:28;;;;;;;15.13;9.70;;;11.00;80.80;;;;;;5020262;28;20307;-59
2022/01/05 09:57:55;;;;;;;18.88;12.07;;;11.10;80.80;;;;;;5020471;28;20856;-59
2022/01/05 10:00:21;;;;;;;15.55;11.98;;;11.20;80.50;;;;;;5023853;28;20036;-59
2022/01/05 10:02:49;;;;;;;18.48;13.98;;;11.20;80.30;;;;;;5028424;28;20152;-59
2022/01/05 10:05:18;;;;;;;20.40;15.80;;;11.30;80.20;;;;;;5020124;28;20042;-58
2022/01/05 10:07:44;;;;;;;21.30;15.30;;;11.30;80.30;;;;;;5025643;28;20429;-56
2022/01/05 10:10:10;;;;;;;18.38;13.30;;;11.30;80.30;;;;;;5028594;28;20085;-58
2022/01/05 10:12:36;;;;;;;15.60;13.13;;;11.40;80.30;;;;;;5018496;28;20018;-58
2022/01/05 10:15:03;;;;;;;16.05;11.85;;;11.40;80.10;;;;;;5019684;28;20134;-59
2022/01/05 10:17:31;;;;;;;14.45;10.90;;;11.40;80.10;;;;;;5031502;28;20032;-57
2022/01/05 10:20:05;;;;;;;13.15;9.80;;;11.50;80.00;;;;;;5029543;28;20400;-56
2022/01/05 10:22:35;;;;;;;11.48;9.30;;;11.50;80.10;;;;;;5029069;28;20049;-59
2022/01/05 10:25:03;;;;;;;13.73;8.82;;;11.50;79.90;;;;;;5027954;28;20171;-57
2022/01/05 10:27:30;;;;;;;11.05;8.23;;;11.60;79.80;;;;;;5022887;28;20033;-58
2022/01/05 10:30:09;;;;;;;10.10;8.00;;;11.60;79.60;;;;;;5024691;28;20082;-55
2022/01/05 10:32:36;;;;;;;10.20;7.93;;;11.70;79.40;;;;;;5021836;28;20532;-58
2022/01/05 10:35:15;;;;;;;11.32;8.95;;;11.70;79.30;;;;;;5022577;28;20033;-57
2022/01/05 10:37:44;;;;;;;10.73;8.32;;;11.70;79.20;;;;;;5023423;28;20048;-57
2022/01/05 10:40:12;;;;;;;9.68;8.00;;;11.70;78.90;;;;;;5025149;28;20021;-57
2022/01/05 10:42:41;;;;;;;9.40;7.03;;;11.80;78.60;;;;;;5026649;28;20093;-56
2022/01/05 10:45:10;;;;;;;9.55;6.95;;;11.80;78.30;;;;;;5018534;28;20048;-58
2022/01/05 10:47:36;;;;;;;11.50;7.43;;;11.80;78.20;;;;;;5018915;28;20110;-56
2022/01/05 10:50:05;;;;;;;9.35;6.80;;;11.80;78.20;;;;;;5022132;28;20500;-57
2022/01/05 10:52:33;;;;;;;9.60;7.80;;;11.80;78.20;;;;;;5029825;28;20029;-59
2022/01/05 10:55:13;;;;;;;9.60;7.53;;;11.90;78.40;;;;;;5025598;28;20026;-56
2022/01/05 10:57:53;;;;;;;8.43;6.78;;;11.90;78.40;;;;;;5026446;28;20043;-59
2022/01/05 11:00:30;;;;;;;10.43;7.07;;;11.90;78.40;;;;;;5011594;28;20117;-57
2022/01/05 11:02:55;;;;;;;10.00;7.00;;;12.00;78.40;;;;;;5025985;28;20098;-57
2022/01/05 11:05:21;;;;;;;9.95;6.50;;;12.00;78.30;;;;;;5024959;28;20033;-58
2022/01/05 11:07:47;;;;;;;7.97;6.70;;;12.00;78.10;;;;;;5032772;28;20029;-57
2022/01/05 11:10:18;;;;;;;9.73;6.93;;;12.00;78.10;;;;;;5028459;28;20031;-57
2022/01/05 11:12:50;;;;;;;;;;;12.00;77.90;;;;;;5037090;28;20035;-57
2022/01/05 11:15:17;;;;;;;9.75;6.97;;;11.90;78.00;;;;;;5032356;28;19917;-57
2022/01/05 11:18:08;;;;;;;9.35;6.88;;;12.00;78.20;;;;;;5033662;28;20099;-57
2022/01/05 11:20:46;;;;;;;10.40;6.32;;;12.00;78.00;;;;;;5034146;28;20037;-57
2022/01/05 11:23:12;;;;;;;9.25;6.60;;;12.00;78.00;;;;;;5025261;28;20038;-59
2022/01/05 11:25:39;;;;;;;10.60;7.40;;;11.90;77.90;;;;;;5029639;28;20087;-57
2022/01/05 11:28:06;;;;;;;9.88;7.00;;;11.90;77.70;;;;;;5032882;28;20075;-56
2022/01/05 11:30:34;;;;;;;9.52;6.53;;;11.90;77.80;;;;;;5026184;28;20064;-57
2022/01/05 11:33:00;;;;;;;9.75;6.78;;;11.80;77.70;;;;;;5027815;28;20036;-58
2022/01/05 11:35:26;;;;;;;11.38;7.63;;;11.80;77.70;;;;;;5029350;28;20035;-56
2022/01/05 11:37:52;;;;;;;9.43;7.20;;;11.90;77.60;;;;;;5033073;28;20391;-57
2022/01/05 11:40:20;;;;;;;9.77;7.30;;;11.80;77.80;;;;;;5031228;28;20121;-58
2022/01/05 11:42:48;;;;;;;10.93;7.68;;;11.90;77.80;;;;;;5028295;28;20063;-56
2022/01/05 11:45:50;;;;;;;9.85;8.05;;;11.80;77.80;;;;;;5030719;28;20037;-57
2022/01/05 11:48:26;;;;;;;10.77;8.20;;;11.90;77.80;;;;;;5027910;28;20761;-57
2022/01/05 11:51:01;;;;;;;12.82;9.43;;;11.80;77.80;;;;;;5027415;28;20033;-56
2022/01/05 11:53:35;;;;;;;12.75;9.18;;;11.80;77.80;;;;;;5037545;28;20119;-57
2022/01/05 11:56:05;;;;;;;12.02;8.82;;;11.80;77.90;;;;;;5027035;28;20068;-58
2022/01/05 11:58:33;;;;;;;11.38;9.10;;;11.80;78.00;;;;;;5030774;28;20028;-56
2022/01/05 12:01:28;;;;;;;12.18;9.40;;;11.80;78.00;;;;;;5018821;28;20034;-57
2022/01/05 12:03:57;;;;;;;12.88;9.50;;;11.70;77.80;;;;;;5033992;28;20136;-59
2022/01/05 12:06:31;;;;;;;14.25;9.77;;;11.70;78.00;;;;;;5028383;28;20039;-57
2022/01/05 12:08:59;;;;;;;11.40;9.00;;;11.70;78.20;;;;;;5015558;28;20033;-59
2022/01/05 12:11:39;;;;;;;9.85;8.23;;;11.70;78.50;;;;;;5021005;28;20077;-59
2022/01/05 12:14:06;;;;;;;11.98;9.20;;;11.70;78.50;;;;;;5022146;28;20029;-59
2022/01/05 12:17:09;;;;;;;9.93;8.27;;;11.70;78.40;;;;;;5028096;28;20029;-58
2022/01/05 12:19:55;;;;;;;11.13;8.65;;;11.60;78.40;;;;;;5028973;28;20029;-58
2022/01/05 12:22:25;;;;;;;12.88;8.70;;;11.60;78.50;;;;;;5023924;28;20396;-60
2022/01/05 12:25:00;;;;;;;15.23;9.73;;;11.60;78.70;;;;;;5024173;28;20033;-59
2022/01/05 12:27:38;;;;;;;12.55;9.77;;;11.60;78.50;;;;;;5024886;28;21368;-61
2022/01/05 12:30:10;;;;;;;10.48;8.98;;;11.60;78.60;;;;;;5025947;28;20030;-62
2022/01/05 12:32:40;;;;;;;14.30;10.30;;;11.50;78.50;;;;;;5024853;28;20118;-60
2022/01/05 12:35:15;;;;;;;13.32;10.25;;;11.50;78.70;;;;;;5031128;28;20464;-61
2022/01/05 12:37:54;;;;;;;12.95;10.80;;;11.50;78.60;;;;;;5025391;28;20043;-59
2022/01/05 12:40:26;;;;;;;14.88;12.05;;;11.50;78.80;;;;;;5028150;28;20045;-59
2022/01/05 12:43:10;;;;;;;15.10;11.73;;;11.40;78.90;;;;;;5028385;28;20028;-58
2022/01/05 12:45:52;;;;;;;17.63;13.52;;;11.40;78.70;;;;;;5025366;28;20033;-59
2022/01/05 12:48:33;;;;;;;21.17;16.48;;;11.40;78.80;;;;;;5020416;28;20048;-59